N178T KBID-KACK
Flight info
| Callsign | N178T |
|---|---|
| Flight time | 0h 29m |
| Altitude | 5500 |
| Route | EASTBOUND |
| Aircraft | TB21/L-SDGY/S |
Departure
| Time | 2026-04-24 13:09 |
|---|---|
| Airport | Block Island State Airport (KBID) |
Arrival
| Time | 2026-04-24 13:39 |
|---|---|
| Airport | Nantucket Memorial Airport (KACK) |
| Time | Latitude | Longitude | Altitude | Speed | Heading |
|---|---|---|---|---|---|
| 2026-04-24 13:03 | 41.16880 | -71.57965 | 119 ft | 0 kts | 354° |
| 2026-04-24 13:05 | 41.16879 | -71.57988 | 119 ft | 5 kts | 242° |
| 2026-04-24 13:06 | 41.16864 | -71.58027 | 119 ft | 8 kts | 246° |
| 2026-04-24 13:06 | 41.16851 | -71.58159 | 120 ft | 13 kts | 264° |
| 2026-04-24 13:06 | 41.16804 | -71.58210 | 119 ft | 11 kts | 168° |
| 2026-04-24 13:06 | 41.16785 | -71.58151 | 120 ft | 12 kts | 83° |
| 2026-04-24 13:07 | 41.16810 | -71.57825 | 117 ft | 65 kts | 82° |
| 2026-04-24 13:07 | 41.16909 | -71.56883 | 287 ft | 78 kts | 75° |
| 2026-04-24 13:07 | 41.17010 | -71.56183 | 460 ft | 78 kts | 75° |
| 2026-04-24 13:07 | 41.17077 | -71.55495 | 575 ft | 75 kts | 77° |
| 2026-04-24 13:08 | 41.17183 | -71.54809 | 601 ft | 71 kts | 70° |
| 2026-04-24 13:08 | 41.17328 | -71.54147 | 584 ft | 74 kts | 70° |
| 2026-04-24 13:08 | 41.17511 | -71.53482 | 531 ft | 81 kts | 62° |
| 2026-04-24 13:09 | 41.17887 | -71.52402 | 649 ft | 68 kts | 55° |
| 2026-04-24 13:09 | 41.18293 | -71.51617 | 839 ft | 89 kts | 60° |
| 2026-04-24 13:09 | 41.18351 | -71.50742 | 1046 ft | 105 kts | 96° |
| 2026-04-24 13:09 | 41.18186 | -71.49751 | 1284 ft | 111 kts | 97° |
| 2026-04-24 13:10 | 41.18063 | -71.49104 | 1518 ft | 107 kts | 97° |
| 2026-04-24 13:10 | 41.17871 | -71.47789 | 1859 ft | 111 kts | 88° |
| 2026-04-24 13:10 | 41.17855 | -71.46765 | 2118 ft | 112 kts | 81° |
| 2026-04-24 13:10 | 41.17847 | -71.45721 | 2391 ft | 114 kts | 83° |
| 2026-04-24 13:11 | 41.17842 | -71.45033 | 2570 ft | 114 kts | 81° |
| 2026-04-24 13:11 | 41.17871 | -71.43953 | 2821 ft | 117 kts | 78° |
| 2026-04-24 13:11 | 41.17944 | -71.42528 | 3178 ft | 118 kts | 76° |
| 2026-04-24 13:11 | 41.17974 | -71.41794 | 3334 ft | 121 kts | 78° |
| 2026-04-24 13:12 | 41.17984 | -71.40299 | 3694 ft | 122 kts | 80° |
| 2026-04-24 13:12 | 41.17964 | -71.39168 | 3922 ft | 125 kts | 83° |
| 2026-04-24 13:12 | 41.17913 | -71.38013 | 4201 ft | 124 kts | 83° |
| 2026-04-24 13:12 | 41.17862 | -71.36851 | 4428 ft | 127 kts | 83° |
| 2026-04-24 13:13 | 41.17784 | -71.35696 | 4702 ft | 127 kts | 87° |
| 2026-04-24 13:13 | 41.17673 | -71.34517 | 4919 ft | 129 kts | 87° |
| 2026-04-24 13:13 | 41.17553 | -71.33343 | 5162 ft | 130 kts | 87° |
| 2026-04-24 13:13 | 41.17429 | -71.32134 | 5375 ft | 131 kts | 88° |
| 2026-04-24 13:14 | 41.17267 | -71.30940 | 5489 ft | 133 kts | 88° |
| 2026-04-24 13:14 | 41.17161 | -71.29698 | 5599 ft | 132 kts | 84° |
| 2026-04-24 13:14 | 41.17180 | -71.28476 | 5607 ft | 136 kts | 71° |
| 2026-04-24 13:14 | 41.17345 | -71.27200 | 5611 ft | 140 kts | 69° |
| 2026-04-24 13:15 | 41.17470 | -71.26351 | 5614 ft | 143 kts | 68° |
| 2026-04-24 13:15 | 41.17668 | -71.25023 | 5588 ft | 148 kts | 69° |
| 2026-04-24 13:15 | 41.17917 | -71.23223 | 5626 ft | 149 kts | 71° |
| 2026-04-24 13:15 | 41.18079 | -71.21842 | 5557 ft | 155 kts | 72° |
| 2026-04-24 13:16 | 41.18213 | -71.20398 | 5505 ft | 158 kts | 75° |
| 2026-04-24 13:16 | 41.18287 | -71.19420 | 5511 ft | 157 kts | 76° |
| 2026-04-24 13:16 | 41.18383 | -71.17968 | 5502 ft | 157 kts | 76° |
| 2026-04-24 13:16 | 41.18499 | -71.16012 | 5449 ft | 159 kts | 79° |
| 2026-04-24 13:17 | 41.18534 | -71.14521 | 5460 ft | 158 kts | 81° |
| 2026-04-24 13:17 | 41.18554 | -71.13520 | 5435 ft | 159 kts | 81° |
| 2026-04-24 13:17 | 41.18590 | -71.11556 | 5423 ft | 158 kts | 80° |
| 2026-04-24 13:17 | 41.18626 | -71.10076 | 5383 ft | 159 kts | 79° |
| 2026-04-24 13:18 | 41.18659 | -71.09096 | 5407 ft | 156 kts | 79° |
| 2026-04-24 13:18 | 41.18732 | -71.07155 | 5406 ft | 156 kts | 79° |
| 2026-04-24 13:18 | 41.18808 | -71.05712 | 5418 ft | 154 kts | 77° |
| 2026-04-24 13:18 | 41.18893 | -71.04268 | 5446 ft | 153 kts | 77° |
| 2026-04-24 13:19 | 41.18989 | -71.02854 | 5419 ft | 155 kts | 77° |
| 2026-04-24 13:19 | 41.19074 | -71.01431 | 5448 ft | 153 kts | 78° |
| 2026-04-24 13:19 | 41.19138 | -71.00011 | 5440 ft | 154 kts | 79° |
| 2026-04-24 13:19 | 41.19177 | -70.99060 | 5421 ft | 155 kts | 78° |
| 2026-04-24 13:20 | 41.19305 | -70.97173 | 5453 ft | 152 kts | 76° |
| 2026-04-24 13:20 | 41.19391 | -70.96252 | 5457 ft | 152 kts | 75° |
| 2026-04-24 13:20 | 41.19611 | -70.94371 | 5436 ft | 152 kts | 72° |
| 2026-04-24 13:20 | 41.19808 | -70.93002 | 5459 ft | 150 kts | 70° |
| 2026-04-24 13:21 | 41.20013 | -70.91643 | 5443 ft | 152 kts | 72° |
| 2026-04-24 13:21 | 41.20119 | -70.90704 | 5441 ft | 153 kts | 75° |
| 2026-04-24 13:21 | 41.20268 | -70.88836 | 5459 ft | 152 kts | 76° |
| 2026-04-24 13:21 | 41.20347 | -70.87896 | 5430 ft | 154 kts | 76° |
| 2026-04-24 13:22 | 41.20537 | -70.86040 | 5453 ft | 151 kts | 73° |
| 2026-04-24 13:22 | 41.20714 | -70.84647 | 5432 ft | 152 kts | 71° |
| 2026-04-24 13:22 | 41.20938 | -70.83288 | 5462 ft | 149 kts | 68° |
| 2026-04-24 13:22 | 41.21226 | -70.81953 | 5467 ft | 148 kts | 63° |
| 2026-04-24 13:23 | 41.21606 | -70.80674 | 5469 ft | 146 kts | 57° |
| 2026-04-24 13:23 | 41.22071 | -70.79500 | 5495 ft | 142 kts | 51° |
| 2026-04-24 13:23 | 41.22633 | -70.78413 | 5496 ft | 142 kts | 47° |
| 2026-04-24 13:23 | 41.23148 | -70.77281 | 5497 ft | 145 kts | 56° |
| 2026-04-24 13:24 | 41.23456 | -70.75954 | 5460 ft | 153 kts | 73° |
| 2026-04-24 13:24 | 41.23532 | -70.75008 | 5493 ft | 153 kts | 80° |
| 2026-04-24 13:24 | 41.23563 | -70.73141 | 5505 ft | 153 kts | 81° |
| 2026-04-24 13:24 | 41.23580 | -70.71709 | 5493 ft | 155 kts | 83° |
| 2026-04-24 13:25 | 41.23574 | -70.70756 | 5507 ft | 155 kts | 84° |
| 2026-04-24 13:25 | 41.23528 | -70.68844 | 5528 ft | 154 kts | 84° |
| 2026-04-24 13:25 | 41.23508 | -70.67415 | 5533 ft | 154 kts | 83° |
| 2026-04-24 13:25 | 41.23512 | -70.65988 | 5457 ft | 158 kts | 82° |
| 2026-04-24 13:26 | 41.23488 | -70.64508 | 5356 ft | 160 kts | 85° |
| 2026-04-24 13:26 | 41.23459 | -70.63050 | 5308 ft | 157 kts | 83° |
| 2026-04-24 13:26 | 41.23446 | -70.61584 | 5204 ft | 159 kts | 84° |
| 2026-04-24 13:26 | 41.23436 | -70.60117 | 5146 ft | 157 kts | 85° |
| 2026-04-24 13:27 | 41.23390 | -70.58674 | 5072 ft | 158 kts | 87° |
| 2026-04-24 13:27 | 41.23350 | -70.57694 | 5006 ft | 159 kts | 87° |
| 2026-04-24 13:27 | 41.23264 | -70.55750 | 4932 ft | 157 kts | 85° |
| 2026-04-24 13:27 | 41.23239 | -70.54288 | 4844 ft | 158 kts | 84° |
| 2026-04-24 13:28 | 41.23242 | -70.52846 | 4762 ft | 158 kts | 83° |
| 2026-04-24 13:28 | 41.23267 | -70.51341 | 4587 ft | 163 kts | 83° |
| 2026-04-24 13:28 | 41.23243 | -70.49811 | 4475 ft | 162 kts | 86° |
| 2026-04-24 13:28 | 41.23270 | -70.48322 | 4380 ft | 159 kts | 81° |
| 2026-04-24 13:29 | 41.23336 | -70.47358 | 4283 ft | 159 kts | 77° |
| 2026-04-24 13:29 | 41.23499 | -70.45909 | 4167 ft | 157 kts | 75° |
| 2026-04-24 13:29 | 41.23799 | -70.44034 | 4013 ft | 155 kts | 70° |
| 2026-04-24 13:29 | 41.24044 | -70.42638 | 3898 ft | 155 kts | 73° |
| 2026-04-24 13:30 | 41.24185 | -70.41703 | 3835 ft | 154 kts | 74° |
| 2026-04-24 13:30 | 41.24490 | -70.39850 | 3689 ft | 153 kts | 71° |
| 2026-04-24 13:30 | 41.24782 | -70.38487 | 3570 ft | 152 kts | 67° |
| 2026-04-24 13:30 | 41.25134 | -70.37179 | 3445 ft | 150 kts | 66° |
| 2026-04-24 13:31 | 41.25386 | -70.36295 | 3312 ft | 150 kts | 64° |
| 2026-04-24 13:31 | 41.25732 | -70.34969 | 3092 ft | 153 kts | 70° |
| 2026-04-24 13:31 | 41.25995 | -70.33614 | 2942 ft | 151 kts | 75° |
| 2026-04-24 13:31 | 41.26212 | -70.31773 | 2722 ft | 150 kts | 77° |
| 2026-04-24 13:32 | 41.26406 | -70.30413 | 2564 ft | 148 kts | 75° |
| 2026-04-24 13:32 | 41.26678 | -70.29074 | 2388 ft | 147 kts | 71° |
| 2026-04-24 13:32 | 41.26973 | -70.27795 | 2237 ft | 145 kts | 69° |
| 2026-04-24 13:32 | 41.27334 | -70.26527 | 2073 ft | 144 kts | 65° |
| 2026-04-24 13:33 | 41.27718 | -70.25292 | 1910 ft | 143 kts | 74° |
| 2026-04-24 13:33 | 41.27601 | -70.24032 | 1884 ft | 141 kts | 111° |
| 2026-04-24 13:33 | 41.27245 | -70.23292 | 1821 ft | 142 kts | 123° |
| 2026-04-24 13:33 | 41.26487 | -70.21909 | 1758 ft | 136 kts | 119° |
| 2026-04-24 13:34 | 41.25971 | -70.20823 | 1632 ft | 139 kts | 116° |
| 2026-04-24 13:34 | 41.25645 | -70.20094 | 1577 ft | 138 kts | 116° |
| 2026-04-24 13:34 | 41.25004 | -70.18619 | 1468 ft | 138 kts | 114° |
| 2026-04-24 13:34 | 41.24569 | -70.17493 | 1377 ft | 138 kts | 112° |
| 2026-04-24 13:35 | 41.24135 | -70.16367 | 1300 ft | 138 kts | 115° |
| 2026-04-24 13:35 | 41.23655 | -70.15309 | 1276 ft | 126 kts | 116° |
| 2026-04-24 13:35 | 41.23361 | -70.14662 | 1269 ft | 118 kts | 116° |
| 2026-04-24 13:35 | 41.22735 | -70.13442 | 1097 ft | 120 kts | 117° |
| 2026-04-24 13:36 | 41.22462 | -70.12833 | 1131 ft | 110 kts | 114° |
| 2026-04-24 13:36 | 41.22040 | -70.11637 | 797 ft | 108 kts | 95° |
| 2026-04-24 13:36 | 41.22110 | -70.10730 | 621 ft | 88 kts | 62° |
| 2026-04-24 13:36 | 41.22463 | -70.10149 | 568 ft | 75 kts | 39° |
| 2026-04-24 13:37 | 41.22713 | -70.09858 | 534 ft | 71 kts | 36° |
| 2026-04-24 13:37 | 41.23155 | -70.09300 | 452 ft | 62 kts | 40° |
| 2026-04-24 13:37 | 41.23351 | -70.09017 | 420 ft | 62 kts | 41° |
| 2026-04-24 13:37 | 41.23757 | -70.08491 | 377 ft | 62 kts | 39° |
| 2026-04-24 13:38 | 41.24072 | -70.08079 | 303 ft | 65 kts | 36° |
| 2026-04-24 13:38 | 41.24408 | -70.07636 | 193 ft | 68 kts | 37° |
| 2026-04-24 13:38 | 41.24746 | -70.07188 | 91 ft | 69 kts | 37° |
| 2026-04-24 13:38 | 41.25064 | -70.06767 | 50 ft | 51 kts | 37° |
| 2026-04-24 13:39 | 41.25192 | -70.06706 | 49 ft | 13 kts | 337° |
| 2026-04-24 13:39 | 41.25264 | -70.06706 | 50 ft | 8 kts | 2° |
| 2026-04-24 13:39 | 41.25303 | -70.06702 | 49 ft | 9 kts | 15° |
| 2026-04-24 13:39 | 41.25385 | -70.06606 | 49 ft | 14 kts | 46° |
| 2026-04-24 13:40 | 41.25431 | -70.06544 | 50 ft | 12 kts | 43° |
| 2026-04-24 13:40 | 41.25480 | -70.06548 | 50 ft | 9 kts | 297° |
| 2026-04-24 13:40 | 41.25476 | -70.06644 | 49 ft | 12 kts | 226° |
| 2026-04-24 13:40 | 41.25443 | -70.06640 | 49 ft | 0 kts | 135° |